sensor_id;sensor_type;location;lat;lon;timestamp;temperature;humidity
69715;HTU21D;56981;53.532;49.398;2024-02-26T00:00:52;-13.16;68.29
69715;HTU21D;56981;53.532;49.398;2024-02-26T00:03:19;-13.17;68.13
69715;HTU21D;56981;53.532;49.398;2024-02-26T00:05:46;-13.19;67.92
69715;HTU21D;56981;53.532;49.398;2024-02-26T00:08:12;-13.22;67.86
69715;HTU21D;56981;53.532;49.398;2024-02-26T00:10:38;-13.24;67.74
69715;HTU21D;56981;53.532;49.398;2024-02-26T00:13:05;-13.29;67.59
69715;HTU21D;56981;53.532;49.398;2024-02-26T00:15:31;-13.27;67.53
69715;HTU21D;56981;53.532;49.398;2024-02-26T00:17:57;-13.24;67.42
69715;HTU21D;56981;53.532;49.398;2024-02-26T00:20:24;-13.21;66.97
69715;HTU21D;56981;53.532;49.398;2024-02-26T00:22:50;-13.17;66.77
69715;HTU21D;56981;53.532;49.398;2024-02-26T00:25:16;-13.16;66.61
69715;HTU21D;56981;53.532;49.398;2024-02-26T00:27:42;-13.18;66.55
69715;HTU21D;56981;53.532;49.398;2024-02-26T00:30:10;-13.18;66.46
69715;HTU21D;56981;53.532;49.398;2024-02-26T00:32:36;-13.16;66.41
69715;HTU21D;56981;53.532;49.398;2024-02-26T00:35:03;-13.17;66.49
69715;HTU21D;56981;53.532;49.398;2024-02-26T00:37:29;-13.17;66.48
69715;HTU21D;56981;53.532;49.398;2024-02-26T00:39:55;-13.21;66.66
69715;HTU21D;56981;53.532;49.398;2024-02-26T00:42:22;-13.23;66.86
69715;HTU21D;56981;53.532;49.398;2024-02-26T00:44:48;-13.23;66.93
69715;HTU21D;56981;53.532;49.398;2024-02-26T00:47:14;-13.25;67.28
69715;HTU21D;56981;53.532;49.398;2024-02-26T00:49:40;-13.26;67.32
69715;HTU21D;56981;53.532;49.398;2024-02-26T00:52:06;-13.26;67.78
69715;HTU21D;56981;53.532;49.398;2024-02-26T00:54:32;-13.22;67.78
69715;HTU21D;56981;53.532;49.398;2024-02-26T00:56:58;-13.17;67.46
69715;HTU21D;56981;53.532;49.398;2024-02-26T00:59:25;-13.15;67.23
69715;HTU21D;56981;53.532;49.398;2024-02-26T01:01:51;-13.17;67.22
69715;HTU21D;56981;53.532;49.398;2024-02-26T01:04:17;-13.13;67.22
69715;HTU21D;56981;53.532;49.398;2024-02-26T01:06:43;-13.14;67.45
69715;HTU21D;56981;53.532;49.398;2024-02-26T01:09:09;-13.12;67.55
69715;HTU21D;56981;53.532;49.398;2024-02-26T01:11:35;-13.11;67.72
69715;HTU21D;56981;53.532;49.398;2024-02-26T01:14:02;-13.22;68.42
69715;HTU21D;56981;53.532;49.398;2024-02-26T01:16:29;-13.31;69.00
69715;HTU21D;56981;53.532;49.398;2024-02-26T01:18:56;-13.40;69.44
69715;HTU21D;56981;53.532;49.398;2024-02-26T01:21:23;-13.45;69.62
69715;HTU21D;56981;53.532;49.398;2024-02-26T01:23:49;-13.51;69.47
69715;HTU21D;56981;53.532;49.398;2024-02-26T01:26:15;-13.55;69.64
69715;HTU21D;56981;53.532;49.398;2024-02-26T01:28:41;-13.56;69.58
69715;HTU21D;56981;53.532;49.398;2024-02-26T01:31:09;-13.59;69.69
69715;HTU21D;56981;53.532;49.398;2024-02-26T01:33:36;-13.62;69.88
69715;HTU21D;56981;53.532;49.398;2024-02-26T01:36:02;-13.61;69.54
69715;HTU21D;56981;53.532;49.398;2024-02-26T01:38:28;-13.61;69.71
69715;HTU21D;56981;53.532;49.398;2024-02-26T01:40:55;-13.66;69.73
69715;HTU21D;56981;53.532;49.398;2024-02-26T01:43:22;-13.66;69.80
69715;HTU21D;56981;53.532;49.398;2024-02-26T01:45:48;-13.60;69.51
69715;HTU21D;56981;53.532;49.398;2024-02-26T01:48:14;-13.54;69.22
69715;HTU21D;56981;53.532;49.398;2024-02-26T01:50:41;-13.52;68.70
69715;HTU21D;56981;53.532;49.398;2024-02-26T01:53:08;-13.52;68.63
69715;HTU21D;56981;53.532;49.398;2024-02-26T01:55:35;-13.52;68.21
69715;HTU21D;56981;53.532;49.398;2024-02-26T01:58:02;-13.52;67.80
69715;HTU21D;56981;53.532;49.398;2024-02-26T02:00:28;-13.51;67.36
69715;HTU21D;56981;53.532;49.398;2024-02-26T02:03:00;-13.48;66.97
69715;HTU21D;56981;53.532;49.398;2024-02-26T02:05:26;-13.46;66.30
69715;HTU21D;56981;53.532;49.398;2024-02-26T02:07:53;-13.40;66.17
69715;HTU21D;56981;53.532;49.398;2024-02-26T02:10:20;-13.39;66.29
69715;HTU21D;56981;53.532;49.398;2024-02-26T02:12:51;-13.38;64.93
69715;HTU21D;56981;53.532;49.398;2024-02-26T02:15:18;-13.39;64.08
69715;HTU21D;56981;53.532;49.398;2024-02-26T02:17:44;-13.33;63.17
69715;HTU21D;56981;53.532;49.398;2024-02-26T02:20:23;-13.27;61.95
69715;HTU21D;56981;53.532;49.398;2024-02-26T02:22:50;-13.23;60.96
69715;HTU21D;56981;53.532;49.398;2024-02-26T02:25:16;-13.19;60.37
69715;HTU21D;56981;53.532;49.398;2024-02-26T02:27:43;-13.18;59.54
69715;HTU21D;56981;53.532;49.398;2024-02-26T02:30:10;-13.16;59.22
69715;HTU21D;56981;53.532;49.398;2024-02-26T02:32:39;-13.14;59.06
69715;HTU21D;56981;53.532;49.398;2024-02-26T02:35:09;-13.11;58.80
69715;HTU21D;56981;53.532;49.398;2024-02-26T02:37:35;-13.10;58.36
69715;HTU21D;56981;53.532;49.398;2024-02-26T02:40:03;-13.12;59.53
69715;HTU21D;56981;53.532;49.398;2024-02-26T02:42:30;-13.14;61.59
69715;HTU21D;56981;53.532;49.398;2024-02-26T02:44:56;-13.21;62.92
69715;HTU21D;56981;53.532;49.398;2024-02-26T02:47:22;-13.23;62.53
69715;HTU21D;56981;53.532;49.398;2024-02-26T02:49:49;-13.26;62.35
69715;HTU21D;56981;53.532;49.398;2024-02-26T02:52:16;-13.29;62.25
69715;HTU21D;56981;53.532;49.398;2024-02-26T02:54:43;-13.33;63.69
69715;HTU21D;56981;53.532;49.398;2024-02-26T02:57:09;-13.31;62.60
69715;HTU21D;56981;53.532;49.398;2024-02-26T02:59:36;-13.31;61.89
69715;HTU21D;56981;53.532;49.398;2024-02-26T03:02:03;-13.32;61.73
69715;HTU21D;56981;53.532;49.398;2024-02-26T03:04:29;-13.30;62.01
69715;HTU21D;56981;53.532;49.398;2024-02-26T03:06:55;-13.34;61.32
69715;HTU21D;56981;53.532;49.398;2024-02-26T03:09:22;-13.33;62.67
69715;HTU21D;56981;53.532;49.398;2024-02-26T03:11:49;-13.33;62.96
69715;HTU21D;56981;53.532;49.398;2024-02-26T03:14:16;-13.34;62.27
69715;HTU21D;56981;53.532;49.398;2024-02-26T03:16:43;-13.31;62.20
69715;HTU21D;56981;53.532;49.398;2024-02-26T03:19:09;-13.30;61.26
69715;HTU21D;56981;53.532;49.398;2024-02-26T03:21:35;-13.29;61.44
69715;HTU21D;56981;53.532;49.398;2024-02-26T03:24:02;-13.30;60.96
69715;HTU21D;56981;53.532;49.398;2024-02-26T03:26:28;-13.29;60.83
69715;HTU21D;56981;53.532;49.398;2024-02-26T03:28:55;-13.27;61.54
69715;HTU21D;56981;53.532;49.398;2024-02-26T03:31:21;-13.29;61.38
69715;HTU21D;56981;53.532;49.398;2024-02-26T03:33:48;-13.32;61.88
69715;HTU21D;56981;53.532;49.398;2024-02-26T03:36:14;-13.34;62.24
69715;HTU21D;56981;53.532;49.398;2024-02-26T03:38:40;-13.33;61.44
69715;HTU21D;56981;53.532;49.398;2024-02-26T03:41:06;-13.34;62.09
69715;HTU21D;56981;53.532;49.398;2024-02-26T03:43:35;-13.30;61.50
69715;HTU21D;56981;53.532;49.398;2024-02-26T03:46:01;-13.24;60.40
69715;HTU21D;56981;53.532;49.398;2024-02-26T03:48:28;-13.21;60.69
69715;HTU21D;56981;53.532;49.398;2024-02-26T03:50:54;-13.18;60.89
69715;HTU21D;56981;53.532;49.398;2024-02-26T03:53:21;-13.13;59.58
69715;HTU21D;56981;53.532;49.398;2024-02-26T03:55:47;-13.26;59.06
69715;HTU21D;56981;53.532;49.398;2024-02-26T03:58:13;-13.19;58.67
69715;HTU21D;56981;53.532;49.398;2024-02-26T04:00:40;-12.94;57.90
69715;HTU21D;56981;53.532;49.398;2024-02-26T04:03:06;-12.54;56.13
69715;HTU21D;56981;53.532;49.398;2024-02-26T04:05:32;-12.22;55.16
69715;HTU21D;56981;53.532;49.398;2024-02-26T04:07:58;-11.86;53.68
69715;HTU21D;56981;53.532;49.398;2024-02-26T04:10:25;-11.37;51.69
69715;HTU21D;56981;53.532;49.398;2024-02-26T04:12:51;-10.95;49.24
69715;HTU21D;56981;53.532;49.398;2024-02-26T04:15:18;-10.65;48.44
69715;HTU21D;56981;53.532;49.398;2024-02-26T04:17:46;-10.31;47.18
69715;HTU21D;56981;53.532;49.398;2024-02-26T04:20:16;-9.82;46.50
69715;HTU21D;56981;53.532;49.398;2024-02-26T04:22:44;-9.48;45.08
69715;HTU21D;56981;53.532;49.398;2024-02-26T04:25:11;-9.70;44.74
69715;HTU21D;56981;53.532;49.398;2024-02-26T04:27:38;-9.85;45.39
69715;HTU21D;56981;53.532;49.398;2024-02-26T04:30:05;-9.76;45.00
69715;HTU21D;56981;53.532;49.398;2024-02-26T04:32:32;-9.39;45.15
69715;HTU21D;56981;53.532;49.398;2024-02-26T04:35:02;-8.70;43.03
69715;HTU21D;56981;53.532;49.398;2024-02-26T04:37:29;-8.15;41.04
69715;HTU21D;56981;53.532;49.398;2024-02-26T04:40:00;-7.68;39.75
69715;HTU21D;56981;53.532;49.398;2024-02-26T04:42:27;-7.12;38.58
69715;HTU21D;56981;53.532;49.398;2024-02-26T04:44:54;-6.06;36.33
69715;HTU21D;56981;53.532;49.398;2024-02-26T04:47:21;-5.10;34.75
69715;HTU21D;56981;53.532;49.398;2024-02-26T04:49:49;-4.26;32.05
69715;HTU21D;56981;53.532;49.398;2024-02-26T04:52:16;-3.97;31.33
69715;HTU21D;56981;53.532;49.398;2024-02-26T04:54:43;-3.67;30.66
69715;HTU21D;56981;53.532;49.398;2024-02-26T04:57:09;-3.00;30.25
69715;HTU21D;56981;53.532;49.398;2024-02-26T04:59:36;-2.13;27.87
69715;HTU21D;56981;53.532;49.398;2024-02-26T05:02:03;-1.43;26.53
69715;HTU21D;56981;53.532;49.398;2024-02-26T05:04:30;-0.93;25.68
69715;HTU21D;56981;53.532;49.398;2024-02-26T05:06:56;-0.85;24.33
69715;HTU21D;56981;53.532;49.398;2024-02-26T05:09:23;-0.46;23.77
69715;HTU21D;56981;53.532;49.398;2024-02-26T05:11:49;-0.50;22.66
69715;HTU21D;56981;53.532;49.398;2024-02-26T05:14:15;-0.29;22.81
69715;HTU21D;56981;53.532;49.398;2024-02-26T05:16:42;0.14;21.35
69715;HTU21D;56981;53.532;49.398;2024-02-26T05:19:08;-0.12;22.05
69715;HTU21D;56981;53.532;49.398;2024-02-26T05:21:34;-0.42;22.63
69715;HTU21D;56981;53.532;49.398;2024-02-26T05:24:01;-0.25;22.39
69715;HTU21D;56981;53.532;49.398;2024-02-26T05:26:27;0.35;21.83
69715;HTU21D;56981;53.532;49.398;2024-02-26T05:28:53;0.79;20.93
69715;HTU21D;56981;53.532;49.398;2024-02-26T05:31:26;0.91;20.58
69715;HTU21D;56981;53.532;49.398;2024-02-26T05:33:52;0.32;21.02
69715;HTU21D;56981;53.532;49.398;2024-02-26T05:36:23;0.68;20.71
69715;HTU21D;56981;53.532;49.398;2024-02-26T05:38:50;0.55;20.52
69715;HTU21D;56981;53.532;49.398;2024-02-26T05:41:16;1.03;19.87
69715;HTU21D;56981;53.532;49.398;2024-02-26T05:43:52;1.34;20.02
69715;HTU21D;56981;53.532;49.398;2024-02-26T05:46:19;1.81;19.58
69715;HTU21D;56981;53.532;49.398;2024-02-26T05:48:51;1.83;19.38
69715;HTU21D;56981;53.532;49.398;2024-02-26T05:51:18;1.69;18.65
69715;HTU21D;56981;53.532;49.398;2024-02-26T05:53:44;1.39;19.78
69715;HTU21D;56981;53.532;49.398;2024-02-26T05:56:11;1.57;20.18
69715;HTU21D;56981;53.532;49.398;2024-02-26T05:58:37;1.54;19.71
69715;HTU21D;56981;53.532;49.398;2024-02-26T06:01:04;1.28;19.57
69715;HTU21D;56981;53.532;49.398;2024-02-26T06:03:30;1.66;19.67
69715;HTU21D;56981;53.532;49.398;2024-02-26T06:05:56;1.73;19.27
69715;HTU21D;56981;53.532;49.398;2024-02-26T06:08:22;2.13;18.93
69715;HTU21D;56981;53.532;49.398;2024-02-26T06:10:49;2.19;19.04
69715;HTU21D;56981;53.532;49.398;2024-02-26T06:13:15;2.14;18.91
69715;HTU21D;56981;53.532;49.398;2024-02-26T06:15:41;2.21;18.47
69715;HTU21D;56981;53.532;49.398;2024-02-26T06:18:08;2.01;18.90
69715;HTU21D;56981;53.532;49.398;2024-02-26T06:20:34;2.24;18.94
69715;HTU21D;56981;53.532;49.398;2024-02-26T06:23:01;2.20;18.19
69715;HTU21D;56981;53.532;49.398;2024-02-26T06:25:27;2.20;18.81
69715;HTU21D;56981;53.532;49.398;2024-02-26T06:27:54;2.44;18.41
69715;HTU21D;56981;53.532;49.398;2024-02-26T06:30:21;2.37;19.79
69715;HTU21D;56981;53.532;49.398;2024-02-26T06:32:47;2.60;19.30
69715;HTU21D;56981;53.532;49.398;2024-02-26T06:35:14;2.58;18.67
69715;HTU21D;56981;53.532;49.398;2024-02-26T06:37:40;2.21;19.28
69715;HTU21D;56981;53.532;49.398;2024-02-26T06:40:07;2.79;19.71
69715;HTU21D;56981;53.532;49.398;2024-02-26T06:42:33;3.04;19.28
69715;HTU21D;56981;53.532;49.398;2024-02-26T06:45:00;2.61;19.60
69715;HTU21D;56981;53.532;49.398;2024-02-26T06:47:26;2.36;20.54
69715;HTU21D;56981;53.532;49.398;2024-02-26T06:49:53;2.87;19.76
69715;HTU21D;56981;53.532;49.398;2024-02-26T06:52:19;2.56;20.27
69715;HTU21D;56981;53.532;49.398;2024-02-26T06:54:46;2.27;20.86
69715;HTU21D;56981;53.532;49.398;2024-02-26T06:57:14;2.19;20.76
69715;HTU21D;56981;53.532;49.398;2024-02-26T06:59:40;1.92;20.37
69715;HTU21D;56981;53.532;49.398;2024-02-26T07:02:06;2.09;23.15
69715;HTU21D;56981;53.532;49.398;2024-02-26T07:04:33;2.12;22.30
69715;HTU21D;56981;53.532;49.398;2024-02-26T07:07:00;1.22;22.44
69715;HTU21D;56981;53.532;49.398;2024-02-26T07:09:26;1.09;23.54
69715;HTU21D;56981;53.532;49.398;2024-02-26T07:11:52;1.14;23.88
69715;HTU21D;56981;53.532;49.398;2024-02-26T07:14:19;1.14;24.08
69715;HTU21D;56981;53.532;49.398;2024-02-26T07:16:45;1.03;23.34
69715;HTU21D;56981;53.532;49.398;2024-02-26T07:19:11;0.62;24.62
69715;HTU21D;56981;53.532;49.398;2024-02-26T07:21:38;0.25;25.65
69715;HTU21D;56981;53.532;49.398;2024-02-26T07:24:05;0.06;26.35
69715;HTU21D;56981;53.532;49.398;2024-02-26T07:26:32;-0.41;26.75
69715;HTU21D;56981;53.532;49.398;2024-02-26T07:28:58;-0.69;27.91
69715;HTU21D;56981;53.532;49.398;2024-02-26T07:31:26;-0.16;27.67
69715;HTU21D;56981;53.532;49.398;2024-02-26T07:33:52;0.19;26.52
69715;HTU21D;56981;53.532;49.398;2024-02-26T07:36:19;0.47;25.88
69715;HTU21D;56981;53.532;49.398;2024-02-26T07:38:45;0.39;26.11
69715;HTU21D;56981;53.532;49.398;2024-02-26T07:41:11;0.33;27.16
69715;HTU21D;56981;53.532;49.398;2024-02-26T07:43:38;-0.01;26.61
69715;HTU21D;56981;53.532;49.398;2024-02-26T07:46:04;-0.17;27.56
69715;HTU21D;56981;53.532;49.398;2024-02-26T07:48:30;-0.26;29.05
69715;HTU21D;56981;53.532;49.398;2024-02-26T07:50:57;-0.50;28.61
69715;HTU21D;56981;53.532;49.398;2024-02-26T07:53:25;-0.81;29.72
69715;HTU21D;56981;53.532;49.398;2024-02-26T07:55:51;-1.00;29.40
69715;HTU21D;56981;53.532;49.398;2024-02-26T07:58:17;-1.29;30.64
69715;HTU21D;56981;53.532;49.398;2024-02-26T08:00:43;-1.08;30.39
69715;HTU21D;56981;53.532;49.398;2024-02-26T08:03:12;-1.13;30.70
69715;HTU21D;56981;53.532;49.398;2024-02-26T08:05:42;-1.06;28.72
69715;HTU21D;56981;53.532;49.398;2024-02-26T08:08:09;-1.11;31.06
69715;HTU21D;56981;53.532;49.398;2024-02-26T08:10:35;-1.19;32.84
69715;HTU21D;56981;53.532;49.398;2024-02-26T08:13:01;-1.17;30.80
69715;HTU21D;56981;53.532;49.398;2024-02-26T08:15:35;-1.14;30.87
69715;HTU21D;56981;53.532;49.398;2024-02-26T08:18:01;-1.40;30.29
69715;HTU21D;56981;53.532;49.398;2024-02-26T08:20:30;-1.76;31.16
69715;HTU21D;56981;53.532;49.398;2024-02-26T08:22:57;-1.65;32.02
69715;HTU21D;56981;53.532;49.398;2024-02-26T08:25:24;-1.38;31.34
69715;HTU21D;56981;53.532;49.398;2024-02-26T08:27:53;-1.36;31.12
69715;HTU21D;56981;53.532;49.398;2024-02-26T08:30:20;-0.89;30.96
69715;HTU21D;56981;53.532;49.398;2024-02-26T08:32:47;-0.42;28.66
69715;HTU21D;56981;53.532;49.398;2024-02-26T08:35:15;-0.45;27.27
69715;HTU21D;56981;53.532;49.398;2024-02-26T08:37:48;-0.38;28.93
69715;HTU21D;56981;53.532;49.398;2024-02-26T08:40:15;-0.60;29.42
69715;HTU21D;56981;53.532;49.398;2024-02-26T08:42:41;-0.67;30.40
69715;HTU21D;56981;53.532;49.398;2024-02-26T08:45:08;-0.84;30.28
69715;HTU21D;56981;53.532;49.398;2024-02-26T08:47:34;-0.67;30.29
69715;HTU21D;56981;53.532;49.398;2024-02-26T08:50:01;-0.98;32.12
69715;HTU21D;56981;53.532;49.398;2024-02-26T08:52:27;-0.86;30.71
69715;HTU21D;56981;53.532;49.398;2024-02-26T08:54:56;-1.35;32.50
69715;HTU21D;56981;53.532;49.398;2024-02-26T08:57:23;-1.41;33.39
69715;HTU21D;56981;53.532;49.398;2024-02-26T08:59:53;-1.59;33.75
69715;HTU21D;56981;53.532;49.398;2024-02-26T09:02:20;-1.94;35.28
69715;HTU21D;56981;53.532;49.398;2024-02-26T09:04:46;-2.16;34.41
69715;HTU21D;56981;53.532;49.398;2024-02-26T09:07:13;-2.38;34.79
69715;HTU21D;56981;53.532;49.398;2024-02-26T09:09:40;-2.78;36.43
69715;HTU21D;56981;53.532;49.398;2024-02-26T09:12:06;-3.18;36.47
69715;HTU21D;56981;53.532;49.398;2024-02-26T09:14:34;-3.40;37.85
69715;HTU21D;56981;53.532;49.398;2024-02-26T09:17:00;-3.35;38.39
69715;HTU21D;56981;53.532;49.398;2024-02-26T09:19:27;-3.41;40.05
69715;HTU21D;56981;53.532;49.398;2024-02-26T09:21:56;-3.72;39.85
69715;HTU21D;56981;53.532;49.398;2024-02-26T09:24:24;-3.89;39.53
69715;HTU21D;56981;53.532;49.398;2024-02-26T09:26:50;-4.15;41.12
69715;HTU21D;56981;53.532;49.398;2024-02-26T09:29:17;-4.30;41.40
69715;HTU21D;56981;53.532;49.398;2024-02-26T09:31:43;-4.67;43.20
69715;HTU21D;56981;53.532;49.398;2024-02-26T09:34:13;-4.75;43.45
69715;HTU21D;56981;53.532;49.398;2024-02-26T09:36:40;-5.01;43.77
69715;HTU21D;56981;53.532;49.398;2024-02-26T09:39:06;-5.02;43.11
69715;HTU21D;56981;53.532;49.398;2024-02-26T09:41:37;-4.90;43.30
69715;HTU21D;56981;53.532;49.398;2024-02-26T09:44:05;-4.88;43.94
69715;HTU21D;56981;53.532;49.398;2024-02-26T09:46:31;-4.81;42.89
69715;HTU21D;56981;53.532;49.398;2024-02-26T09:48:58;-4.90;43.64
69715;HTU21D;56981;53.532;49.398;2024-02-26T09:51:25;-4.82;44.23
69715;HTU21D;56981;53.532;49.398;2024-02-26T09:53:52;-4.66;44.38
69715;HTU21D;56981;53.532;49.398;2024-02-26T09:56:21;-4.65;43.00
69715;HTU21D;56981;53.532;49.398;2024-02-26T09:58:48;-4.49;44.30
69715;HTU21D;56981;53.532;49.398;2024-02-26T10:01:20;-4.55;46.41
69715;HTU21D;56981;53.532;49.398;2024-02-26T10:03:51;-4.34;43.63
69715;HTU21D;56981;53.532;49.398;2024-02-26T10:06:19;-4.42;42.47
69715;HTU21D;56981;53.532;49.398;2024-02-26T10:08:45;-4.52;45.16
69715;HTU21D;56981;53.532;49.398;2024-02-26T10:11:13;-4.34;45.91
69715;HTU21D;56981;53.532;49.398;2024-02-26T10:13:41;-4.32;45.07
69715;HTU21D;56981;53.532;49.398;2024-02-26T10:16:07;-4.31;44.99
69715;HTU21D;56981;53.532;49.398;2024-02-26T10:18:47;-4.30;44.93
69715;HTU21D;56981;53.532;49.398;2024-02-26T10:21:13;-4.36;44.57
69715;HTU21D;56981;53.532;49.398;2024-02-26T10:23:46;-4.38;46.79
69715;HTU21D;56981;53.532;49.398;2024-02-26T10:26:16;-4.56;44.82
69715;HTU21D;56981;53.532;49.398;2024-02-26T10:28:44;-4.78;45.68
69715;HTU21D;56981;53.532;49.398;2024-02-26T10:31:11;-4.83;45.55
69715;HTU21D;56981;53.532;49.398;2024-02-26T10:33:41;-4.67;46.56
69715;HTU21D;56981;53.532;49.398;2024-02-26T10:36:08;-4.57;46.67
69715;HTU21D;56981;53.532;49.398;2024-02-26T10:38:36;-4.43;47.02
69715;HTU21D;56981;53.532;49.398;2024-02-26T10:41:06;-4.44;47.15
69715;HTU21D;56981;53.532;49.398;2024-02-26T10:43:38;-4.48;46.53
69715;HTU21D;56981;53.532;49.398;2024-02-26T10:46:04;-4.46;47.56
69715;HTU21D;56981;53.532;49.398;2024-02-26T10:48:32;-4.44;48.34
69715;HTU21D;56981;53.532;49.398;2024-02-26T10:50:58;-4.64;47.60
69715;HTU21D;56981;53.532;49.398;2024-02-26T10:53:29;-4.84;47.54
69715;HTU21D;56981;53.532;49.398;2024-02-26T10:56:00;-4.95;47.83
69715;HTU21D;56981;53.532;49.398;2024-02-26T10:58:27;-4.82;49.63
69715;HTU21D;56981;53.532;49.398;2024-02-26T11:00:58;-4.75;50.45
69715;HTU21D;56981;53.532;49.398;2024-02-26T11:03:26;-4.64;49.98
69715;HTU21D;56981;53.532;49.398;2024-02-26T11:05:58;-4.57;49.76
69715;HTU21D;56981;53.532;49.398;2024-02-26T11:08:26;-4.87;51.79
69715;HTU21D;56981;53.532;49.398;2024-02-26T11:10:55;-4.84;51.36
69715;HTU21D;56981;53.532;49.398;2024-02-26T11:13:23;-4.83;50.84
69715;HTU21D;56981;53.532;49.398;2024-02-26T11:15:51;-4.81;52.04
69715;HTU21D;56981;53.532;49.398;2024-02-26T11:18:22;-4.87;52.72
69715;HTU21D;56981;53.532;49.398;2024-02-26T11:20:50;-4.87;51.67
69715;HTU21D;56981;53.532;49.398;2024-02-26T11:23:17;-5.01;50.92
69715;HTU21D;56981;53.532;49.398;2024-02-26T11:25:44;-5.04;51.78
69715;HTU21D;56981;53.532;49.398;2024-02-26T11:28:15;-5.02;53.10
69715;HTU21D;56981;53.532;49.398;2024-02-26T11:30:47;-5.09;52.21
69715;HTU21D;56981;53.532;49.398;2024-02-26T11:33:15;-5.08;52.53
69715;HTU21D;56981;53.532;49.398;2024-02-26T11:35:42;-5.12;52.92
69715;HTU21D;56981;53.532;49.398;2024-02-26T11:38:20;-5.07;53.37
69715;HTU21D;56981;53.532;49.398;2024-02-26T11:40:48;-5.25;53.94
69715;HTU21D;56981;53.532;49.398;2024-02-26T11:43:15;-5.33;53.81
69715;HTU21D;56981;53.532;49.398;2024-02-26T11:48:24;-5.54;53.82
69715;HTU21D;56981;53.532;49.398;2024-02-26T11:50:54;-5.68;54.45
69715;HTU21D;56981;53.532;49.398;2024-02-26T11:53:28;-5.69;54.90
69715;HTU21D;56981;53.532;49.398;2024-02-26T11:59:09;-5.55;54.66
69715;HTU21D;56981;53.532;49.398;2024-02-26T12:04:14;-5.60;54.59
69715;HTU21D;56981;53.532;49.398;2024-02-26T12:06:42;-5.61;56.00
69715;HTU21D;56981;53.532;49.398;2024-02-26T12:09:37;-5.48;55.65
69715;HTU21D;56981;53.532;49.398;2024-02-26T12:12:08;-5.48;54.96
69715;HTU21D;56981;53.532;49.398;2024-02-26T12:17:28;-5.48;55.14
69715;HTU21D;56981;53.532;49.398;2024-02-26T12:19:55;-5.48;55.13
69715;HTU21D;56981;53.532;49.398;2024-02-26T12:22:22;-5.59;55.74
69715;HTU21D;56981;53.532;49.398;2024-02-26T12:24:58;-5.74;55.52
69715;HTU21D;56981;53.532;49.398;2024-02-26T12:27:26;-5.91;56.16
69715;HTU21D;56981;53.532;49.398;2024-02-26T12:29:53;-6.03;55.90
69715;HTU21D;56981;53.532;49.398;2024-02-26T12:32:19;-6.13;57.06
69715;HTU21D;56981;53.532;49.398;2024-02-26T12:34:45;-6.19;56.74
69715;HTU21D;56981;53.532;49.398;2024-02-26T12:37:12;-6.17;56.71
69715;HTU21D;56981;53.532;49.398;2024-02-26T12:39:41;-6.21;56.84
69715;HTU21D;56981;53.532;49.398;2024-02-26T12:42:07;-6.17;56.95
69715;HTU21D;56981;53.532;49.398;2024-02-26T12:44:34;-6.26;57.67
69715;HTU21D;56981;53.532;49.398;2024-02-26T12:47:01;-6.30;57.26
69715;HTU21D;56981;53.532;49.398;2024-02-26T12:49:31;-6.39;57.90
69715;HTU21D;56981;53.532;49.398;2024-02-26T12:51:58;-6.36;57.73
69715;HTU21D;56981;53.532;49.398;2024-02-26T12:54:29;-6.47;58.30
69715;HTU21D;56981;53.532;49.398;2024-02-26T12:56:55;-6.45;58.53
69715;HTU21D;56981;53.532;49.398;2024-02-26T12:59:22;-6.43;57.90
69715;HTU21D;56981;53.532;49.398;2024-02-26T13:01:49;-6.51;57.62
69715;HTU21D;56981;53.532;49.398;2024-02-26T13:04:16;-6.61;58.94
69715;HTU21D;56981;53.532;49.398;2024-02-26T13:06:43;-6.71;58.42
69715;HTU21D;56981;53.532;49.398;2024-02-26T13:09:13;-6.79;58.58
69715;HTU21D;56981;53.532;49.398;2024-02-26T13:11:40;-6.86;59.25
69715;HTU21D;56981;53.532;49.398;2024-02-26T13:14:21;-6.87;58.89
69715;HTU21D;56981;53.532;49.398;2024-02-26T13:16:57;-6.95;59.64
69715;HTU21D;56981;53.532;49.398;2024-02-26T13:19:24;-6.98;59.65
69715;HTU21D;56981;53.532;49.398;2024-02-26T13:21:51;-7.01;59.93
69715;HTU21D;56981;53.532;49.398;2024-02-26T13:24:20;-7.06;59.69
69715;HTU21D;56981;53.532;49.398;2024-02-26T13:26:55;-7.19;59.98
69715;HTU21D;56981;53.532;49.398;2024-02-26T13:29:27;-7.22;60.29
69715;HTU21D;56981;53.532;49.398;2024-02-26T13:32:00;-7.24;60.56
69715;HTU21D;56981;53.532;49.398;2024-02-26T13:34:27;-7.26;60.53
69715;HTU21D;56981;53.532;49.398;2024-02-26T13:36:54;-7.32;60.35
69715;HTU21D;56981;53.532;49.398;2024-02-26T13:39:25;-7.31;60.55
69715;HTU21D;56981;53.532;49.398;2024-02-26T13:41:52;-7.35;60.35
69715;HTU21D;56981;53.532;49.398;2024-02-26T13:44:21;-7.44;60.64
69715;HTU21D;56981;53.532;49.398;2024-02-26T13:46:48;-7.45;61.21
69715;HTU21D;56981;53.532;49.398;2024-02-26T13:49:15;-7.47;61.31
69715;HTU21D;56981;53.532;49.398;2024-02-26T13:51:41;-7.53;61.68
69715;HTU21D;56981;53.532;49.398;2024-02-26T13:54:08;-7.64;61.49
69715;HTU21D;56981;53.532;49.398;2024-02-26T13:56:36;-7.75;62.05
69715;HTU21D;56981;53.532;49.398;2024-02-26T13:59:03;-7.79;62.48
69715;HTU21D;56981;53.532;49.398;2024-02-26T14:01:29;-7.90;63.00
69715;HTU21D;56981;53.532;49.398;2024-02-26T14:03:57;-7.97;62.82
69715;HTU21D;56981;53.532;49.398;2024-02-26T14:06:23;-8.01;63.00
69715;HTU21D;56981;53.532;49.398;2024-02-26T14:08:50;-8.08;63.14
69715;HTU21D;56981;53.532;49.398;2024-02-26T14:11:16;-8.12;63.37
69715;HTU21D;56981;53.532;49.398;2024-02-26T14:13:43;-8.22;63.64
69715;HTU21D;56981;53.532;49.398;2024-02-26T14:16:12;-8.27;64.34
69715;HTU21D;56981;53.532;49.398;2024-02-26T14:18:40;-8.31;64.29
69715;HTU21D;56981;53.532;49.398;2024-02-26T14:21:07;-8.35;64.43
69715;HTU21D;56981;53.532;49.398;2024-02-26T14:23:34;-8.45;64.58
69715;HTU21D;56981;53.532;49.398;2024-02-26T14:26:01;-8.54;64.85
69715;HTU21D;56981;53.532;49.398;2024-02-26T14:28:29;-8.63;65.25
69715;HTU21D;56981;53.532;49.398;2024-02-26T14:30:56;-8.71;65.52
69715;HTU21D;56981;53.532;49.398;2024-02-26T14:33:22;-8.79;65.40
69715;HTU21D;56981;53.532;49.398;2024-02-26T14:35:49;-8.84;65.82
69715;HTU21D;56981;53.532;49.398;2024-02-26T14:38:16;-8.89;65.72
69715;HTU21D;56981;53.532;49.398;2024-02-26T14:40:45;-8.95;66.18
69715;HTU21D;56981;53.532;49.398;2024-02-26T14:57:15;-9.45;68.05
69715;HTU21D;56981;53.532;49.398;2024-02-26T14:59:41;-9.48;68.01
69715;HTU21D;56981;53.532;49.398;2024-02-26T15:02:14;-9.53;67.97
69715;HTU21D;56981;53.532;49.398;2024-02-26T15:04:44;-9.60;68.26
69715;HTU21D;56981;53.532;49.398;2024-02-26T15:07:11;0.00;68.81
69715;HTU21D;56981;53.532;49.398;2024-02-26T15:09:38;-9.66;68.91
69715;HTU21D;56981;53.532;49.398;2024-02-26T15:12:06;-9.69;68.76
69715;HTU21D;56981;53.532;49.398;2024-02-26T15:14:33;-9.67;69.24
69715;HTU21D;56981;53.532;49.398;2024-02-26T15:17:01;-9.70;69.01
69715;HTU21D;56981;53.532;49.398;2024-02-26T15:19:31;-9.73;69.13
69715;HTU21D;56981;53.532;49.398;2024-02-26T15:22:05;-9.74;69.38
69715;HTU21D;56981;53.532;49.398;2024-02-26T15:24:36;-9.77;69.05
69715;HTU21D;56981;53.532;49.398;2024-02-26T15:27:04;-9.81;69.25